Time;durP1;ratioP1;P1;durP2;ratioP2;P2;SDS_P1;SDS_P2;PMS_P1;PMS_P2;Temp;Humidity;BMP_temperature;BMP_pressure;BME280_temperature;BME280_humidity;BME280_pressure;Samples;Min_cycle;Max_cycle;Signal;HPM_P1;HPM_P2
2022/07/25 00:01:14;;;;;;;13.57;8.80;;;;;;;24.78;60.67;100941.53;5132694;27;20386;-55
2022/07/25 00:03:42;;;;;;;18.80;8.82;;;;;;;24.75;60.69;100945.00;5105912;27;20495;-55
2022/07/25 00:06:10;;;;;;;12.20;8.88;;;;;;;24.73;60.44;100941.81;5138139;27;20079;-55
2022/07/25 00:08:44;;;;;;;12.07;8.43;;;;;;;24.73;60.63;100944.59;5137781;27;20032;-54
2022/07/25 00:11:11;;;;;;;11.95;8.27;;;;;;;24.72;60.63;100938.19;5128567;27;20043;-54
2022/07/25 00:13:39;;;;;;;13.65;9.00;;;;;;;24.71;60.57;100936.59;5135473;27;20043;-51
2022/07/25 00:16:06;;;;;;;14.15;8.77;;;;;;;24.69;60.83;100933.34;5137256;27;20046;-52
2022/07/25 00:18:34;;;;;;;15.82;9.25;;;;;;;24.66;60.86;100929.31;5129649;27;20556;-53
2022/07/25 00:21:02;;;;;;;14.43;9.10;;;;;;;24.66;60.66;100925.72;5117362;27;20036;-53
2022/07/25 00:23:29;;;;;;;13.65;9.07;;;;;;;24.65;60.93;100924.09;5096072;27;20039;-54
2022/07/25 00:25:58;;;;;;;13.52;9.07;;;;;;;24.64;60.92;100917.72;5135350;27;20110;-52
2022/07/25 00:28:25;;;;;;;13.88;9.82;;;;;;;24.63;60.96;100921.69;5092006;27;20051;-56
2022/07/25 00:30:53;;;;;;;16.65;10.05;;;;;;;24.62;60.94;100919.25;5137250;27;20490;-52
2022/07/25 00:33:21;;;;;;;14.80;9.85;;;;;;;24.60;61.04;100925.16;5127941;27;20076;-55
2022/07/25 00:35:48;;;;;;;16.10;8.57;;;;;;;24.58;60.91;100919.19;5132206;27;20046;-53
2022/07/25 00:38:16;;;;;;;12.32;8.85;;;;;;;24.57;61.07;100911.16;5112410;28;20043;-53
2022/07/25 00:40:44;;;;;;;12.00;9.18;;;;;;;24.54;61.08;100904.34;5137959;27;20471;-51
2022/07/25 00:43:20;;;;;;;18.98;9.48;;;;;;;24.52;61.04;100908.66;5134698;27;20039;-56
2022/07/25 00:45:48;;;;;;;15.40;9.93;;;;;;;24.48;61.14;100903.00;5137403;27;20046;-58
2022/07/25 00:48:15;;;;;;;13.48;9.55;;;;;;;24.46;61.50;100894.19;5132440;27;20053;-57
2022/07/25 00:50:43;;;;;;;15.95;10.65;;;;;;;24.43;61.63;100897.66;5128483;27;20039;-55
2022/07/25 00:53:11;;;;;;;14.10;9.93;;;;;;;24.40;61.55;100890.03;5131495;27;20039;-57
2022/07/25 00:55:40;;;;;;;14.20;10.50;;;;;;;24.35;61.62;100891.13;5136707;27;20047;-56
2022/07/25 00:58:07;;;;;;;13.68;9.52;;;;;;;24.32;62.05;100889.06;5137092;27;20069;-55
2022/07/25 01:00:35;;;;;;;14.60;9.88;;;;;;;24.32;61.63;100891.03;5133686;27;20043;-57
2022/07/25 01:03:03;;;;;;;14.93;10.48;;;;;;;24.30;61.83;100885.81;5135300;27;20076;-56
2022/07/25 01:05:30;;;;;;;17.17;10.50;;;;;;;24.30;62.03;100874.69;5126555;27;20063;-57
2022/07/25 01:07:58;;;;;;;14.88;10.50;;;;;;;24.31;62.01;100875.50;5136689;27;20090;-57
2022/07/25 01:10:26;;;;;;;17.05;10.77;;;;;;;24.31;62.04;100869.91;5124425;27;20051;-56
2022/07/25 01:12:54;;;;;;;15.75;10.35;;;;;;;24.31;61.97;100869.91;5127810;27;20045;-56
2022/07/25 01:15:23;;;;;;;14.38;10.50;;;;;;;24.32;61.79;100871.56;5131716;27;20074;-57
2022/07/25 01:17:51;;;;;;;15.00;10.55;;;;;;;24.32;62.09;100854.84;5126205;27;20032;-56
2022/07/25 01:20:23;;;;;;;16.27;10.35;;;;;;;24.29;61.82;100856.34;5135843;27;20043;-56
2022/07/25 01:22:51;;;;;;;13.43;9.60;;;;;;;24.28;61.92;100859.50;5134198;27;20050;-55
2022/07/25 01:25:19;;;;;;;15.90;10.35;;;;;;;24.28;61.82;100853.94;5094905;27;20031;-55
2022/07/25 01:27:48;;;;;;;15.05;10.82;;;;;;;24.27;61.99;100847.56;5118195;27;20031;-52
2022/07/25 01:30:23;;;;;;;14.82;10.73;;;;;;;24.24;61.71;100842.69;5120791;27;20048;-52
2022/07/25 01:32:51;;;;;;;16.83;9.77;;;;;;;24.21;61.91;100843.44;5134453;27;20046;-51
2022/07/25 01:35:19;;;;;;;23.15;10.55;;;;;;;24.19;62.31;100849.34;5128145;27;20048;-52
2022/07/25 01:37:46;;;;;;;18.02;11.25;;;;;;;24.18;61.88;100836.59;5133815;27;20042;-52
2022/07/25 01:40:14;;;;;;;13.35;10.57;;;;;;;24.13;61.82;100839.66;5136098;27;20046;-54
2022/07/25 01:42:42;;;;;;;13.50;10.15;;;;;;;24.11;62.05;100841.19;5135911;27;20057;-54
2022/07/25 01:45:10;;;;;;;14.55;10.57;;;;;;;24.08;62.10;100833.56;5132816;27;20035;-50
2022/07/25 01:47:39;;;;;;;14.02;10.88;;;;;;;23.98;62.13;100832.94;5136043;27;20046;-57
2022/07/25 01:50:07;;;;;;;16.35;11.18;;;;;;;23.93;62.42;100832.38;5104445;27;20035;-55
2022/07/25 01:52:36;;;;;;;14.23;10.77;;;;;;;23.89;62.61;100820.38;5136083;27;20390;-51
2022/07/25 01:55:04;;;;;;;14.23;10.45;;;;;;;23.92;62.60;100820.44;5098719;27;20043;-56
2022/07/25 01:57:32;;;;;;;15.77;10.07;;;;;;;23.94;62.36;100812.56;5135360;27;20036;-56
2022/07/25 02:00:04;;;;;;;15.57;10.90;;;;;;;23.95;62.37;100813.34;5114062;27;20062;-51
2022/07/25 02:02:39;;;;;;;15.32;11.18;;;;;;;23.93;62.36;100810.13;5118707;27;20071;-58
2022/07/25 02:05:08;;;;;;;16.17;10.63;;;;;;;23.88;62.36;100802.84;5102676;28;20511;-57
2022/07/25 02:07:36;;;;;;;14.25;10.60;;;;;;;23.83;62.64;100805.09;5106831;27;20066;-57
2022/07/25 02:10:05;;;;;;;14.88;10.48;;;;;;;23.83;62.67;100803.13;5116405;27;20035;-52
2022/07/25 02:12:33;;;;;;;15.77;10.30;;;;;;;23.85;62.60;100799.97;5134337;27;20031;-53
2022/07/25 02:15:01;;;;;;;16.63;10.80;;;;;;;23.87;62.43;100792.09;5132003;27;20042;-55
2022/07/25 02:17:28;;;;;;;14.13;10.07;;;;;;;23.87;62.28;100786.53;5124961;27;20515;-54
2022/07/25 02:19:56;;;;;;;14.43;10.52;;;;;;;23.88;62.36;100790.91;5117849;27;20046;-53
2022/07/25 02:22:23;;;;;;;15.88;10.80;;;;;;;23.88;61.96;100788.13;5134470;27;20047;-54
2022/07/25 02:24:51;;;;;;;17.30;10.90;;;;;;;23.85;61.97;100791.63;5135191;27;20039;-55
2022/07/25 02:27:19;;;;;;;18.23;10.73;;;;;;;23.77;62.12;100787.88;5120272;27;20451;-54
2022/07/25 02:29:46;;;;;;;13.45;10.10;;;;;;;23.69;62.49;100789.63;5121249;27;20043;-55
2022/07/25 02:32:14;;;;;;;14.63;10.00;;;;;;;23.69;62.49;100783.25;5133460;27;20050;-53
2022/07/25 02:34:41;;;;;;;14.43;10.32;;;;;;;23.72;62.56;100783.34;5102485;27;20041;-56
2022/07/25 02:37:09;;;;;;;14.32;10.07;;;;;;;23.73;62.24;100782.19;5127708;27;20057;-56
2022/07/25 02:39:37;;;;;;;14.00;9.90;;;;;;;23.71;62.16;100781.72;5133019;27;20045;-54
2022/07/25 02:42:04;;;;;;;15.32;10.30;;;;;;;23.68;62.11;100785.22;5125550;27;20039;-56
2022/07/25 02:44:32;;;;;;;14.93;9.98;;;;;;;23.65;62.14;100777.59;5115599;27;20048;-51
2022/07/25 02:47:00;;;;;;;15.40;10.73;;;;;;;23.62;62.42;100769.97;5121455;27;20070;-56
2022/07/25 02:49:27;;;;;;;16.13;10.38;;;;;;;23.59;62.37;100765.13;5115348;28;20409;-55
2022/07/25 02:51:56;;;;;;;16.90;9.75;;;;;;;23.57;62.60;100764.66;5127188;27;20046;-58
2022/07/25 02:54:24;;;;;;;16.73;10.35;;;;;;;23.56;62.39;100761.06;5121744;27;20127;-57
2022/07/25 02:56:51;;;;;;;18.35;11.10;;;;;;;23.56;62.40;100755.50;5114421;27;20042;-55
2022/07/25 02:59:19;;;;;;;13.02;10.27;;;;;;;23.53;62.33;100753.47;5118595;27;20039;-55
2022/07/25 03:01:46;;;;;;;14.68;10.38;;;;;;;23.50;62.71;100759.75;5131317;27;20035;-53
2022/07/25 03:04:14;;;;;;;14.88;10.85;;;;;;;23.50;62.58;100762.53;5114777;27;20031;-57
2022/07/25 03:06:43;;;;;;;17.85;10.95;;;;;;;23.50;62.53;100753.34;5119570;27;20134;-57
2022/07/25 03:09:11;;;;;;;15.00;10.45;;;;;;;23.51;62.44;100752.19;5121192;27;20031;-57
2022/07/25 03:11:38;;;;;;;14.38;10.38;;;;;;;23.52;62.42;100759.38;5120185;27;20051;-56
2022/07/25 03:14:07;;;;;;;13.52;10.38;;;;;;;23.53;62.51;100752.66;5124488;27;20039;-57
2022/07/25 03:16:36;;;;;;;17.23;11.10;;;;;;;23.53;62.55;100755.44;5129718;27;20054;-56
2022/07/25 03:19:03;;;;;;;18.60;10.63;;;;;;;23.50;62.42;100734.72;5130020;27;20035;-58
2022/07/25 03:21:31;;;;;;;16.20;10.02;;;;;;;23.48;62.43;100736.25;5120484;27;20057;-53
2022/07/25 03:23:59;;;;;;;16.27;11.15;;;;;;;23.47;62.46;100729.84;5130406;27;20058;-57
2022/07/25 03:26:26;;;;;;;15.10;10.68;;;;;;;23.45;62.41;100734.97;5134422;27;20051;-54
2022/07/25 03:28:54;;;;;;;14.73;10.48;;;;;;;23.42;62.54;100721.78;5125926;27;20042;-55
2022/07/25 03:31:21;;;;;;;14.45;10.38;;;;;;;23.39;62.42;100717.72;5117024;28;20043;-55
2022/07/25 03:33:49;;;;;;;13.90;10.05;;;;;;;23.37;62.37;100727.59;5114329;28;20043;-58
2022/07/25 03:36:18;;;;;;;14.63;9.98;;;;;;;23.35;62.77;100741.06;5102161;28;20054;-57
2022/07/25 03:38:45;;;;;;;16.75;10.40;;;;;;;23.34;62.80;100739.44;5134155;28;20039;-55
2022/07/25 03:41:13;;;;;;;15.32;11.18;;;;;;;23.35;62.91;100735.50;5124936;28;20048;-52
2022/07/25 03:43:41;;;;;;;21.23;11.05;;;;;;;23.35;62.59;100730.72;5125037;28;20043;-55
2022/07/25 03:46:08;;;;;;;14.82;11.07;;;;;;;23.35;62.45;100732.72;5122728;28;20371;-55
2022/07/25 03:48:36;;;;;;;15.68;12.05;;;;;;;23.28;62.62;100730.56;5134411;28;20538;-55
2022/07/25 03:51:04;;;;;;;14.07;10.18;;;;;;;23.25;62.72;100731.25;5111558;28;20080;-57
2022/07/25 03:54:00;;;;;;;16.80;11.27;;;;;;;23.25;62.79;100725.69;5131444;28;20035;-55
2022/07/25 03:56:22;;;;;;;15.77;11.48;;;;;;;23.24;62.73;100721.31;5131339;28;20497;-55
2022/07/25 03:58:49;;;;;;;17.70;11.35;;;;;;;23.23;62.78;100721.66;5121186;28;20043;-54
2022/07/25 04:01:17;;;;;;;15.60;10.88;;;;;;;23.24;62.70;100718.53;5123430;28;20043;-55
2022/07/25 04:03:45;;;;;;;16.20;10.60;;;;;;;23.23;62.68;100713.31;5120426;28;20130;-55
2022/07/25 04:06:13;;;;;;;16.55;9.82;;;;;;;23.17;62.43;100708.03;5131695;28;20062;-55
2022/07/25 04:08:40;;;;;;;14.60;10.35;;;;;;;23.14;62.58;100714.31;5134014;28;20035;-56
2022/07/25 04:11:08;;;;;;;17.13;10.82;;;;;;;23.14;62.63;100707.94;5113876;28;20058;-54
2022/07/25 04:13:36;;;;;;;15.73;10.77;;;;;;;23.12;62.69;100705.53;5118074;28;20146;-55
2022/07/25 04:16:04;;;;;;;15.20;10.18;;;;;;;23.11;62.58;100706.66;5121860;28;20039;-57
2022/07/25 04:18:31;;;;;;;13.02;8.85;;;;;;;23.11;62.79;100708.66;5130614;28;20035;-55
2022/07/25 04:21:01;;;;;;;14.38;8.70;;;;;;;23.15;62.63;100704.00;5115445;28;20386;-55
2022/07/25 04:23:29;;;;;;;12.65;8.90;;;;;;;23.17;62.42;100712.78;5120821;28;20040;-55
2022/07/25 04:25:57;;;;;;;13.48;8.90;;;;;;;23.19;62.47;100704.91;5115478;28;20042;-57
2022/07/25 04:28:25;;;;;;;14.40;9.93;;;;;;;23.20;62.37;100706.50;5133566;28;20049;-57
2022/07/25 04:30:53;;;;;;;11.35;7.57;;;;;;;23.21;62.10;100707.31;5107106;28;20427;-55
2022/07/25 04:33:21;;;;;;;12.82;7.72;;;;;;;23.22;62.01;100704.19;5107775;28;20118;-55
2022/07/25 04:35:48;;;;;;;12.88;8.80;;;;;;;23.24;61.76;100707.41;5123150;28;20031;-53
2022/07/25 04:38:16;;;;;;;10.68;7.90;;;;;;;23.26;61.64;100705.09;5133552;28;20043;-57
2022/07/25 04:40:44;;;;;;;11.77;7.60;;;;;;;23.27;61.69;100703.13;5130580;28;20031;-54
2022/07/25 04:43:11;;;;;;;11.55;7.45;;;;;;;23.28;61.45;100696.38;5103803;27;20040;-54
2022/07/25 04:45:39;;;;;;;10.75;7.78;;;;;;;23.26;61.75;100696.75;5121753;27;20116;-57
2022/07/25 04:48:08;;;;;;;13.00;8.70;;;;;;;23.25;61.34;100695.13;5132870;27;20067;-56
2022/07/25 04:50:35;;;;;;;14.10;8.27;;;;;;;23.26;61.38;100710.66;5118616;27;20074;-56
2022/07/25 04:53:03;;;;;;;11.68;7.40;;;;;;;23.26;61.30;100710.66;5131161;27;20051;-57
2022/07/25 04:55:31;;;;;;;10.60;7.30;;;;;;;23.29;61.12;100720.25;5127101;27;20043;-54
2022/07/25 04:57:59;;;;;;;11.15;7.03;;;;;;;23.31;60.99;100713.16;5106861;27;20039;-54
2022/07/25 05:00:27;;;;;;;11.63;7.45;;;;;;;23.34;60.74;100706.88;5129000;27;20043;-54
2022/07/25 05:02:55;;;;;;;14.73;7.90;;;;;;;23.32;60.67;100698.09;5128169;27;20408;-54
2022/07/25 05:05:22;;;;;;;10.85;7.10;;;;;;;23.33;60.58;100698.88;5126910;27;20127;-53
2022/07/25 05:07:54;;;;;;;10.00;6.88;;;;;;;23.31;60.52;100693.72;5129880;27;20497;-56
2022/07/25 05:10:23;;;;;;;9.70;6.85;;;;;;;23.33;60.38;100694.16;5131583;27;20106;-57
2022/07/25 05:12:50;;;;;;;10.02;6.93;;;;;;;23.32;60.58;100691.72;5130868;27;20050;-54
2022/07/25 05:15:18;;;;;;;11.15;6.93;;;;;;;23.31;60.52;100693.72;5133417;27;20038;-57
2022/07/25 05:17:47;;;;;;;11.50;7.13;;;;;;;23.33;60.48;100687.78;5136549;27;20058;-57
2022/07/25 05:20:14;;;;;;;9.38;6.82;;;;;;;23.33;60.54;100685.00;5134103;27;20050;-56
2022/07/25 05:22:42;;;;;;;9.27;6.68;;;;;;;23.31;60.29;100690.94;5124299;27;20039;-57
2022/07/25 05:25:10;;;;;;;10.30;6.25;;;;;;;23.33;60.39;100685.81;5133665;27;20038;-56
2022/07/25 05:27:38;;;;;;;11.75;7.65;;;;;;;23.32;60.58;100683.38;5101751;27;20496;-55
2022/07/25 05:30:08;;;;;;;12.40;6.72;;;;;;;23.35;60.67;100700.16;5125141;27;20047;-56
2022/07/25 05:32:35;;;;;;;11.80;6.68;;;;;;;23.37;60.27;100697.00;5116339;27;20462;-55
2022/07/25 05:35:04;;;;;;;11.02;7.63;;;;;;;23.37;60.51;100700.59;5130885;27;20058;-55
2022/07/25 05:37:33;;;;;;;10.90;6.97;;;;;;;23.40;60.57;100693.50;5119820;27;20043;-55
2022/07/25 05:40:01;;;;;;;13.75;6.90;;;;;;;23.43;60.53;100689.19;5106783;27;20049;-55
2022/07/25 05:42:29;;;;;;;11.63;7.30;;;;;;;23.44;60.49;100688.06;5136436;27;20047;-53
2022/07/25 05:44:57;;;;;;;12.75;7.85;;;;;;;23.46;60.47;100689.31;5113626;27;20039;-56
2022/07/25 05:47:25;;;;;;;11.35;7.03;;;;;;;23.47;60.53;100692.88;5125102;27;20035;-54
2022/07/25 05:49:53;;;;;;;11.52;6.95;;;;;;;23.48;60.56;100691.75;5121821;27;20033;-58
2022/07/25 05:52:20;;;;;;;10.63;7.25;;;;;;;23.50;60.24;100689.38;5134352;27;20043;-58
2022/07/25 05:54:48;;;;;;;17.05;7.85;;;;;;;23.49;60.59;100699.72;5122501;27;20035;-52
2022/07/25 05:57:16;;;;;;;14.23;7.68;;;;;;;23.50;60.95;100708.84;5117761;27;20031;-54
2022/07/25 05:59:43;;;;;;;15.50;6.57;;;;;;;23.50;60.92;100703.28;5135201;27;20035;-52
2022/07/25 06:02:11;;;;;;;19.08;8.60;;;;;;;23.48;61.39;100702.88;4399535;28;10000433;-56
2022/07/25 06:04:39;;;;;;;12.40;6.95;;;;;;;23.48;61.34;100705.66;5117187;27;20093;-57
2022/07/25 06:07:06;;;;;;;15.88;8.35;;;;;;;23.48;61.68;100705.66;5132719;27;20055;-55
2022/07/25 06:09:35;;;;;;;12.77;7.50;;;;;;;23.45;61.40;100695.22;5132163;27;20047;-55
2022/07/25 06:12:02;;;;;;;13.80;7.50;;;;;;;23.44;61.42;100702.75;5116312;27;20050;-49
2022/07/25 06:14:30;;;;;;;12.95;7.47;;;;;;;23.41;61.12;100716.59;5095781;28;20095;-53
2022/07/25 06:16:58;;;;;;;17.75;8.00;;;;;;;23.33;60.90;100724.75;5116978;27;20067;-56
2022/07/25 06:19:25;;;;;;;13.93;6.97;;;;;;;23.30;61.21;100728.22;5109110;28;20031;-51
2022/07/25 06:21:53;;;;;;;13.65;6.80;;;;;;;23.29;61.33;100732.19;5124613;27;20036;-51
2022/07/25 06:24:21;;;;;;;13.80;7.50;;;;;;;23.29;61.61;100721.06;5118388;27;20419;-51
2022/07/25 06:26:48;;;;;;;15.13;7.65;;;;;;;23.23;61.88;100738.34;5100654;28;20054;-48
2022/07/25 06:29:16;;;;;;;16.77;8.43;;;;;;;23.09;62.17;100722.09;5129447;27;20051;-49
2022/07/25 06:31:43;;;;;;;16.05;8.52;;;;;;;23.06;62.69;100714.47;5122764;27;20039;-51
2022/07/25 06:34:13;;;;;;;17.75;7.70;;;;;;;23.07;62.74;100718.88;5131324;27;20416;-53
2022/07/25 06:36:41;;;;;;;15.27;7.50;;;;;;;23.06;63.02;100723.59;5122412;27;20040;-53
2022/07/25 06:39:08;;;;;;;13.73;7.72;;;;;;;23.05;63.27;100726.75;5127239;27;20129;-48
2022/07/25 06:41:36;;;;;;;16.73;8.60;;;;;;;22.97;63.72;100726.53;5131298;27;20047;-49
2022/07/25 06:44:04;;;;;;;12.95;8.27;;;;;;;22.94;63.90;100727.22;5131146;27;20114;-49
2022/07/25 06:46:32;;;;;;;12.73;7.75;;;;;;;22.95;64.17;100737.19;5089575;28;20458;-52
2022/07/25 06:49:00;;;;;;;12.15;7.35;;;;;;;22.96;64.27;100736.00;5120806;27;20043;-54
2022/07/25 06:51:27;;;;;;;15.15;8.48;;;;;;;22.94;64.21;100732.78;5131237;27;20468;-49
2022/07/25 06:53:55;;;;;;;15.20;7.47;;;;;;;23.01;64.36;100732.19;5134461;27;20394;-52
2022/07/25 06:56:23;;;;;;;15.07;7.95;;;;;;;23.04;64.08;100722.34;5124390;27;20044;-50
2022/07/25 06:58:52;;;;;;;17.58;8.60;;;;;;;23.03;64.12;100718.75;5123749;27;20050;-49
2022/07/25 07:01:19;;;;;;;14.10;8.25;;;;;;;22.98;63.87;100721.81;5125991;27;20107;-49
2022/07/25 07:03:47;;;;;;;15.35;7.60;;;;;;;22.96;64.39;100724.91;5134785;27;20501;-54
2022/07/25 07:06:15;;;;;;;17.15;8.38;;;;;;;22.96;64.45;100722.13;5133173;27;20428;-49
2022/07/25 07:08:42;;;;;;;9.90;7.03;;;;;;;22.95;63.77;100728.84;5126450;27;20044;-51
2022/07/25 07:11:12;;;;;;;12.43;7.10;;;;;;;22.93;63.89;100716.47;5134484;27;20046;-51
2022/07/25 07:13:39;;;;;;;13.80;7.05;;;;;;;22.90;64.36;100715.22;5127635;27;20154;-49
2022/07/25 07:16:07;;;;;;;20.25;8.35;;;;;;;22.91;64.24;100719.59;5111410;27;20047;-52
2022/07/25 07:18:35;;;;;;;11.88;7.03;;;;;;;22.93;64.42;100725.63;5127427;27;20035;-50
2022/07/25 07:21:04;;;;;;;11.05;6.82;;;;;;;22.96;64.30;100724.09;5120411;27;20507;-52
2022/07/25 07:23:32;;;;;;;12.07;6.88;;;;;;;22.95;64.44;100723.28;5130876;27;20043;-52
2022/07/25 07:26:00;;;;;;;11.85;6.30;;;;;;;22.91;64.31;100724.34;5127918;27;20035;-49
2022/07/25 07:28:28;;;;;;;13.10;6.53;;;;;;;22.86;64.43;100719.06;5107655;27;20089;-50
2022/07/25 07:30:56;;;;;;;10.73;6.88;;;;;;;22.85;64.53;100723.81;5127987;27;20040;-54
2022/07/25 07:33:44;;;;;;;13.13;6.63;;;;;;;22.88;64.77;100720.31;5120875;27;20044;-51
2022/07/25 07:36:12;;;;;;;10.23;6.25;;;;;;;22.94;64.68;100721.66;5133845;27;20031;-51
2022/07/25 07:38:40;;;;;;;13.07;6.53;;;;;;;22.97;65.28;100718.19;5123956;27;20498;-54
2022/07/25 07:41:08;;;;;;;12.98;7.00;;;;;;;23.02;65.51;100730.22;5116672;27;20426;-53
2022/07/25 07:43:35;;;;;;;11.52;5.40;;;;;;;23.05;65.34;100723.97;5130363;28;20108;-49
2022/07/25 07:46:03;;;;;;;12.02;6.53;;;;;;;23.09;65.02;100720.13;5133761;28;20082;-55
2022/07/25 07:48:31;;;;;;;9.60;5.22;;;;;;;23.10;64.95;100724.50;5134750;28;20043;-53
2022/07/25 07:51:00;;;;;;;13.35;5.63;;;;;;;23.16;65.19;100733.41;5106666;28;20039;-51
2022/07/25 07:56:16;;;;;;;13.15;5.78;;;;;;;23.10;65.52;100734.84;5134039;28;20035;-52
2022/07/25 07:58:44;;;;;;;11.32;5.22;;;;;;;23.10;65.58;100734.84;5127469;28;20032;-50
2022/07/25 08:01:11;;;;;;;9.73;5.20;;;;;;;23.13;65.78;100734.13;5116947;28;20031;-52
2022/07/25 08:03:39;;;;;;;10.10;4.38;;;;;;;23.15;65.69;100737.34;5120866;28;20050;-51
2022/07/25 08:06:07;;;;;;;9.13;4.00;;;;;;;23.14;65.81;100736.56;5133834;28;20059;-51
2022/07/25 08:08:34;;;;;;;12.05;3.42;;;;;;;23.16;65.72;100741.72;5133508;28;20043;-51
2022/07/25 08:11:02;;;;;;;10.90;4.00;;;;;;;23.16;65.82;100747.28;5121431;28;20047;-53
2022/07/25 08:13:32;;;;;;;6.18;2.92;;;;;;;23.20;65.94;100734.31;5112255;28;20039;-51
2022/07/25 08:16:04;;;;;;;6.15;2.90;;;;;;;23.25;66.31;100742.38;5104574;28;20032;-53
2022/07/25 08:18:32;;;;;;;5.88;2.88;;;;;;;23.25;66.41;100745.16;5134315;27;20045;-56
2022/07/25 08:21:05;;;;;;;8.02;2.78;;;;;;;23.26;66.08;100740.41;5119321;27;20051;-53
2022/07/25 08:23:34;;;;;;;9.02;2.55;;;;;;;23.23;66.03;100738.34;5137538;27;20027;-52
2022/07/25 08:26:02;;;;;;;10.88;2.83;;;;;;;23.26;66.58;100744.00;5118385;27;20031;-52
2022/07/25 08:28:30;;;;;;;10.10;2.88;;;;;;;23.34;66.95;100734.69;5137486;27;20100;-52
2022/07/25 08:30:58;;;;;;;8.40;2.72;;;;;;;23.41;65.94;100738.84;5137520;27;20433;-52
2022/07/25 08:33:26;;;;;;;7.85;2.78;;;;;;;23.50;65.79;100742.22;5137187;27;20054;-54
2022/07/25 08:35:54;;;;;;;8.70;2.78;;;;;;;23.58;66.11;100733.72;5137202;27;20039;-51
2022/07/25 08:38:23;;;;;;;7.07;2.63;;;;;;;23.59;65.16;100735.34;5133683;27;20039;-53
2022/07/25 08:40:52;;;;;;;6.82;2.40;;;;;;;23.57;64.90;100753.53;5132811;27;20043;-49
2022/07/25 08:43:20;;;;;;;7.18;2.33;;;;;;;23.54;64.80;100748.69;5137346;27;20390;-51
2022/07/25 08:45:51;;;;;;;7.80;2.20;;;;;;;23.51;65.65;100752.19;5119112;27;20092;-51
2022/07/25 08:48:24;;;;;;;6.47;2.22;;;;;;;23.47;66.37;100754.88;5118678;27;20043;-53
2022/07/25 08:50:53;;;;;;;7.22;2.60;;;;;;;23.50;66.83;100753.34;5121949;27;20113;-52
2022/07/25 08:53:21;;;;;;;9.13;2.30;;;;;;;23.53;67.48;100753.47;5118966;27;20047;-51
2022/07/25 08:56:06;;;;;;;7.57;2.17;;;;;;;23.60;67.29;100763.97;5137002;27;20072;-49
2022/07/25 08:58:41;;;;;;;5.20;2.08;;;;;;;23.60;67.66;100758.41;5102742;27;20047;-54
2022/07/25 09:01:11;;;;;;;7.20;2.53;;;;;;;23.63;67.31;100752.13;5120963;27;20093;-53
2022/07/25 09:03:40;;;;;;;9.15;2.50;;;;;;;23.66;67.92;100750.59;5136918;27;20056;-53
2022/07/25 09:06:16;;;;;;;7.70;2.20;;;;;;;23.67;67.68;100743.84;5137125;27;20142;-49
2022/07/25 09:08:55;;;;;;;6.30;2.20;;;;;;;23.70;67.97;100755.06;5124441;27;20043;-55
2022/07/25 09:11:31;;;;;;;6.85;2.50;;;;;;;23.73;68.58;100757.16;5136003;27;20414;-52
2022/07/25 09:14:05;;;;;;;7.07;2.40;;;;;;;23.69;68.98;100756.25;5119747;27;20042;-54
2022/07/25 09:16:38;;;;;;;6.10;2.30;;;;;;;23.71;69.00;100755.88;5132061;27;20047;-54
2022/07/25 09:19:10;;;;;;;8.60;2.75;;;;;;;23.73;69.44;100754.38;5135822;27;20045;-55
2022/07/25 09:21:39;;;;;;;7.60;2.50;;;;;;;23.78;68.32;100756.88;5121953;27;20044;-53
2022/07/25 09:24:13;;;;;;;7.57;2.25;;;;;;;23.84;67.28;100753.88;5116497;27;20047;-52
2022/07/25 09:26:57;;;;;;;5.40;2.10;;;;;;;23.83;67.54;100760.56;5109133;27;20546;-54
2022/07/25 09:29:29;;;;;;;14.10;2.40;;;;;;;23.84;66.86;100767.78;5134821;27;20042;-51
2022/07/25 09:31:58;;;;;;;9.02;2.40;;;;;;;23.87;66.31;100764.25;5117916;27;20047;-52
2022/07/25 09:34:34;;;;;;;5.75;2.10;;;;;;;23.88;65.59;100769.44;5118409;27;20047;-51
2022/07/25 09:37:03;;;;;;;3.63;1.70;;;;;;;23.87;65.46;100773.41;5128599;27;20114;-52
2022/07/25 09:39:40;;;;;;;5.18;2.10;;;;;;;23.87;63.80;100783.75;5116352;27;20070;-51
2022/07/25 09:42:24;;;;;;;4.28;1.50;;;;;;;23.89;64.15;100781.41;5136013;27;20046;-52
2022/07/25 09:44:59;;;;;;;7.25;2.20;;;;;;;23.92;64.35;100783.47;5100897;28;20036;-52
2022/07/25 09:47:27;;;;;;;7.90;2.20;;;;;;;23.97;64.35;100789.56;5129696;27;20557;-49
2022/07/25 09:49:55;;;;;;;6.47;2.67;;;;;;;24.00;64.06;100790.81;5087513;27;20031;-53
2022/07/25 09:52:23;;;;;;;8.48;2.60;;;;;;;23.99;63.82;100800.34;5123105;27;20074;-50
2022/07/25 09:54:50;;;;;;;6.60;2.50;;;;;;;23.97;63.56;100794.31;5119977;27;20486;-53
2022/07/25 09:57:18;;;;;;;6.43;2.10;;;;;;;23.99;63.38;100800.34;5135682;27;20049;-53
2022/07/25 09:59:46;;;;;;;7.38;3.00;;;;;;;24.04;62.48;100808.41;5117348;27;20392;-54
2022/07/25 10:02:26;;;;;;;4.93;2.45;;;;;;;24.12;60.71;100790.72;5108182;28;20054;-51
2022/07/25 10:05:15;;;;;;;7.05;2.45;;;;;;;24.14;60.31;100791.16;5111365;28;20050;-52
2022/07/25 10:07:45;;;;;;;7.53;3.17;;;;;;;24.18;60.71;100805.97;5129032;27;20055;-57
2022/07/25 10:10:24;;;;;;;6.72;2.67;;;;;;;24.21;61.10;100802.47;5117460;27;20035;-56
2022/07/25 10:13:03;;;;;;;7.25;2.42;;;;;;;24.27;62.02;100802.19;5138464;27;20386;-56
2022/07/25 10:15:47;;;;;;;9.35;3.15;;;;;;;24.30;60.52;100795.91;5108546;28;20062;-55
2022/07/25 10:18:17;;;;;;;8.70;3.03;;;;;;;24.33;60.47;100800.75;5120818;27;20036;-57
2022/07/25 10:20:46;;;;;;;5.43;2.60;;;;;;;24.33;60.66;100801.56;5132468;27;20031;-54
2022/07/25 10:23:25;;;;;;;7.95;2.70;;;;;;;24.38;61.10;100803.25;5126649;27;20405;-54
2022/07/25 10:26:14;;;;;;;7.78;2.42;;;;;;;24.47;60.68;100809.47;5096032;27;20042;-54
2022/07/25 10:28:50;;;;;;;7.40;2.70;;;;;;;24.49;60.95;100800.75;5128781;27;20039;-53
2022/07/25 10:31:20;;;;;;;6.93;3.03;;;;;;;24.55;60.14;100797.31;5098693;28;20050;-50
2022/07/25 10:33:54;;;;;;;10.00;2.72;;;;;;;24.61;59.57;100806.19;5111199;27;20076;-50
2022/07/25 10:36:23;;;;;;;6.93;2.15;;;;;;;24.64;59.43;100792.34;5133404;27;20047;-50
2022/07/25 10:38:55;;;;;;;7.90;2.80;;;;;;;24.69;59.24;100796.81;5125149;27;20047;-52
2022/07/25 10:41:27;;;;;;;6.82;2.95;;;;;;;24.66;59.47;100803.94;5101776;27;20039;-56
2022/07/25 10:44:01;;;;;;;7.65;2.80;;;;;;;24.66;60.11;100803.94;5121806;27;20039;-52
2022/07/25 10:46:29;;;;;;;12.43;3.15;;;;;;;24.65;60.03;100796.75;5120753;27;20047;-51
2022/07/25 10:48:59;;;;;;;13.63;3.33;;;;;;;24.67;60.75;100804.72;5099543;27;20031;-53
2022/07/25 10:51:30;;;;;;;7.70;3.08;;;;;;;24.64;58.83;100809.06;5097879;27;20039;-53
2022/07/25 10:53:58;;;;;;;6.22;2.50;;;;;;;24.60;57.86;100810.13;5126356;27;20035;-53
2022/07/25 10:56:27;;;;;;;7.00;2.55;;;;;;;24.60;57.52;100805.38;5116478;27;20043;-52
2022/07/25 10:58:57;;;;;;;7.13;2.60;;;;;;;24.64;57.22;100811.84;5130440;27;20580;-58
2022/07/25 11:01:31;;;;;;;8.63;2.88;;;;;;;24.65;57.69;100807.91;5119737;27;20049;-54
2022/07/25 11:04:01;;;;;;;6.00;2.33;;;;;;;24.67;57.86;100827.81;5134541;27;20469;-52
2022/07/25 11:06:37;;;;;;;8.23;2.63;;;;;;;24.75;57.44;100816.81;5118914;27;20054;-52
2022/07/25 11:09:13;;;;;;;6.13;2.53;;;;;;;24.81;56.69;100826.53;5113124;27;20035;-51
2022/07/25 11:11:47;;;;;;;9.18;3.00;;;;;;;24.86;56.74;100820.66;5121951;27;20032;-52
2022/07/25 11:14:17;;;;;;;7.35;2.55;;;;;;;24.79;56.72;100812.94;5106529;27;20061;-55
2022/07/25 11:16:45;;;;;;;7.25;2.78;;;;;;;24.75;56.73;100819.63;5114692;28;20118;-52
2022/07/25 11:19:27;;;;;;;10.05;2.92;;;;;;;24.75;57.27;100825.19;5108912;27;20089;-54
2022/07/25 11:21:59;;;;;;;7.55;2.72;;;;;;;24.78;57.91;100832.84;5129250;27;20035;-52
2022/07/25 11:24:40;;;;;;;7.53;2.95;;;;;;;24.80;57.54;100836.06;5124511;27;20126;-53
2022/07/25 11:27:23;;;;;;;7.40;3.03;;;;;;;24.82;56.77;100836.50;5115019;27;20077;-54
2022/07/25 11:29:52;;;;;;;7.20;2.92;;;;;;;24.76;55.64;100835.97;5129482;27;20096;-54